sensor_id;sensor_type;location;lat;lon;timestamp;P1;durP1;ratioP1;P2;durP2;ratioP2
20124;SDS011;10223;50.862;4.360;2023-08-06T00:00:25;8.47;;;3.27;;
20124;SDS011;10223;50.862;4.360;2023-08-06T00:02:52;6.37;;;3.10;;
20124;SDS011;10223;50.862;4.360;2023-08-06T00:05:19;7.53;;;2.77;;
20124;SDS011;10223;50.862;4.360;2023-08-06T00:07:46;9.03;;;3.20;;
20124;SDS011;10223;50.862;4.360;2023-08-06T00:10:14;8.17;;;3.20;;
20124;SDS011;10223;50.862;4.360;2023-08-06T00:12:41;9.40;;;3.53;;
20124;SDS011;10223;50.862;4.360;2023-08-06T00:15:08;4.13;;;2.60;;
20124;SDS011;10223;50.862;4.360;2023-08-06T00:17:35;7.33;;;3.20;;
20124;SDS011;10223;50.862;4.360;2023-08-06T00:20:03;8.43;;;3.90;;
20124;SDS011;10223;50.862;4.360;2023-08-06T00:22:31;10.17;;;4.00;;
20124;SDS011;10223;50.862;4.360;2023-08-06T00:24:58;8.70;;;3.50;;
20124;SDS011;10223;50.862;4.360;2023-08-06T00:27:26;9.17;;;4.43;;
20124;SDS011;10223;50.862;4.360;2023-08-06T00:29:53;8.73;;;4.30;;
20124;SDS011;10223;50.862;4.360;2023-08-06T00:32:20;9.47;;;4.60;;
20124;SDS011;10223;50.862;4.360;2023-08-06T00:34:47;12.10;;;4.97;;
20124;SDS011;10223;50.862;4.360;2023-08-06T00:37:14;7.57;;;4.77;;
20124;SDS011;10223;50.862;4.360;2023-08-06T00:39:42;13.10;;;5.17;;
20124;SDS011;10223;50.862;4.360;2023-08-06T00:42:09;6.77;;;4.57;;
20124;SDS011;10223;50.862;4.360;2023-08-06T00:44:37;10.77;;;5.17;;
20124;SDS011;10223;50.862;4.360;2023-08-06T00:47:04;15.57;;;4.73;;
20124;SDS011;10223;50.862;4.360;2023-08-06T00:49:33;12.20;;;5.17;;
20124;SDS011;10223;50.862;4.360;2023-08-06T00:52:01;9.27;;;5.33;;
20124;SDS011;10223;50.862;4.360;2023-08-06T00:54:30;15.50;;;6.23;;
20124;SDS011;10223;50.862;4.360;2023-08-06T00:56:57;10.90;;;5.00;;
20124;SDS011;10223;50.862;4.360;2023-08-06T00:59:25;10.53;;;5.30;;
20124;SDS011;10223;50.862;4.360;2023-08-06T01:01:54;11.63;;;6.17;;
20124;SDS011;10223;50.862;4.360;2023-08-06T01:04:20;15.87;;;5.60;;
20124;SDS011;10223;50.862;4.360;2023-08-06T01:06:48;12.33;;;6.17;;
20124;SDS011;10223;50.862;4.360;2023-08-06T01:09:31;14.73;;;6.80;;
20124;SDS011;10223;50.862;4.360;2023-08-06T01:12:06;13.83;;;6.43;;
20124;SDS011;10223;50.862;4.360;2023-08-06T01:14:44;16.67;;;7.60;;
20124;SDS011;10223;50.862;4.360;2023-08-06T01:17:17;15.57;;;7.07;;
20124;SDS011;10223;50.862;4.360;2023-08-06T01:19:44;16.87;;;7.60;;
20124;SDS011;10223;50.862;4.360;2023-08-06T01:22:12;15.60;;;7.67;;
20124;SDS011;10223;50.862;4.360;2023-08-06T01:24:39;17.93;;;8.37;;
20124;SDS011;10223;50.862;4.360;2023-08-06T01:27:11;16.23;;;7.93;;
20124;SDS011;10223;50.862;4.360;2023-08-06T01:29:44;13.70;;;7.00;;
20124;SDS011;10223;50.862;4.360;2023-08-06T01:32:14;13.53;;;6.30;;
20124;SDS011;10223;50.862;4.360;2023-08-06T01:34:43;14.67;;;7.70;;
20124;SDS011;10223;50.862;4.360;2023-08-06T01:37:13;14.60;;;7.80;;
20124;SDS011;10223;50.862;4.360;2023-08-06T01:39:42;14.00;;;7.27;;
20124;SDS011;10223;50.862;4.360;2023-08-06T01:42:09;15.40;;;7.30;;
20124;SDS011;10223;50.862;4.360;2023-08-06T01:44:35;12.00;;;7.47;;
20124;SDS011;10223;50.862;4.360;2023-08-06T01:47:02;14.40;;;7.20;;
20124;SDS011;10223;50.862;4.360;2023-08-06T01:49:29;14.47;;;7.27;;
20124;SDS011;10223;50.862;4.360;2023-08-06T01:51:56;21.80;;;8.17;;
20124;SDS011;10223;50.862;4.360;2023-08-06T01:54:24;17.13;;;8.13;;
20124;SDS011;10223;50.862;4.360;2023-08-06T01:56:52;12.53;;;6.60;;
20124;SDS011;10223;50.862;4.360;2023-08-06T01:59:19;11.63;;;6.20;;
20124;SDS011;10223;50.862;4.360;2023-08-06T02:01:46;12.03;;;6.50;;
20124;SDS011;10223;50.862;4.360;2023-08-06T02:04:13;13.80;;;5.73;;
20124;SDS011;10223;50.862;4.360;2023-08-06T02:06:39;13.87;;;5.87;;
20124;SDS011;10223;50.862;4.360;2023-08-06T02:09:06;8.57;;;5.27;;
20124;SDS011;10223;50.862;4.360;2023-08-06T02:11:34;15.73;;;5.47;;
20124;SDS011;10223;50.862;4.360;2023-08-06T02:14:01;11.50;;;4.87;;
20124;SDS011;10223;50.862;4.360;2023-08-06T02:16:28;7.83;;;3.53;;
20124;SDS011;10223;50.862;4.360;2023-08-06T02:18:54;12.33;;;3.33;;
20124;SDS011;10223;50.862;4.360;2023-08-06T02:21:21;9.57;;;3.33;;
20124;SDS011;10223;50.862;4.360;2023-08-06T02:23:48;7.17;;;2.63;;
20124;SDS011;10223;50.862;4.360;2023-08-06T02:26:15;12.00;;;2.67;;
20124;SDS011;10223;50.862;4.360;2023-08-06T02:28:43;9.80;;;2.63;;
20124;SDS011;10223;50.862;4.360;2023-08-06T02:31:10;9.43;;;2.50;;
20124;SDS011;10223;50.862;4.360;2023-08-06T02:33:36;9.47;;;2.07;;
20124;SDS011;10223;50.862;4.360;2023-08-06T02:36:03;10.13;;;2.60;;
20124;SDS011;10223;50.862;4.360;2023-08-06T02:38:31;10.13;;;2.03;;
20124;SDS011;10223;50.862;4.360;2023-08-06T02:40:58;11.07;;;2.40;;
20124;SDS011;10223;50.862;4.360;2023-08-06T02:43:25;7.33;;;1.60;;
20124;SDS011;10223;50.862;4.360;2023-08-06T02:45:56;7.30;;;2.20;;
20124;SDS011;10223;50.862;4.360;2023-08-06T02:48:23;8.43;;;2.03;;
20124;SDS011;10223;50.862;4.360;2023-08-06T02:50:49;10.10;;;2.10;;
20124;SDS011;10223;50.862;4.360;2023-08-06T02:53:16;4.90;;;2.17;;
20124;SDS011;10223;50.862;4.360;2023-08-06T02:55:45;9.57;;;2.03;;
20124;SDS011;10223;50.862;4.360;2023-08-06T02:58:12;7.47;;;2.43;;
20124;SDS011;10223;50.862;4.360;2023-08-06T03:00:39;11.77;;;3.10;;
20124;SDS011;10223;50.862;4.360;2023-08-06T03:03:07;9.50;;;3.10;;
20124;SDS011;10223;50.862;4.360;2023-08-06T03:05:34;10.40;;;3.37;;
20124;SDS011;10223;50.862;4.360;2023-08-06T03:08:01;8.93;;;3.10;;
20124;SDS011;10223;50.862;4.360;2023-08-06T03:10:28;15.23;;;3.67;;
20124;SDS011;10223;50.862;4.360;2023-08-06T03:12:55;9.43;;;4.27;;
20124;SDS011;10223;50.862;4.360;2023-08-06T03:15:21;15.63;;;6.40;;
20124;SDS011;10223;50.862;4.360;2023-08-06T03:17:48;16.67;;;7.07;;
20124;SDS011;10223;50.862;4.360;2023-08-06T03:20:17;15.37;;;6.73;;
20124;SDS011;10223;50.862;4.360;2023-08-06T03:22:43;18.50;;;7.60;;
20124;SDS011;10223;50.862;4.360;2023-08-06T03:25:10;17.07;;;8.37;;
20124;SDS011;10223;50.862;4.360;2023-08-06T03:27:37;19.50;;;9.00;;
20124;SDS011;10223;50.862;4.360;2023-08-06T03:30:04;23.40;;;10.70;;
20124;SDS011;10223;50.862;4.360;2023-08-06T03:32:32;24.03;;;9.97;;
20124;SDS011;10223;50.862;4.360;2023-08-06T03:34:59;20.40;;;9.40;;
20124;SDS011;10223;50.862;4.360;2023-08-06T03:37:27;14.73;;;8.60;;
20124;SDS011;10223;50.862;4.360;2023-08-06T03:39:53;11.40;;;6.83;;
20124;SDS011;10223;50.862;4.360;2023-08-06T03:42:20;10.83;;;5.90;;
20124;SDS011;10223;50.862;4.360;2023-08-06T03:44:47;9.93;;;5.60;;
20124;SDS011;10223;50.862;4.360;2023-08-06T03:47:14;7.63;;;4.57;;
20124;SDS011;10223;50.862;4.360;2023-08-06T03:49:40;8.57;;;4.57;;
20124;SDS011;10223;50.862;4.360;2023-08-06T03:52:08;7.03;;;4.53;;
20124;SDS011;10223;50.862;4.360;2023-08-06T03:54:36;6.87;;;3.30;;
20124;SDS011;10223;50.862;4.360;2023-08-06T03:57:04;5.50;;;2.50;;
20124;SDS011;10223;50.862;4.360;2023-08-06T03:59:31;2.70;;;1.60;;
20124;SDS011;10223;50.862;4.360;2023-08-06T04:01:58;2.17;;;0.87;;
20124;SDS011;10223;50.862;4.360;2023-08-06T04:04:24;3.37;;;0.73;;
20124;SDS011;10223;50.862;4.360;2023-08-06T04:06:51;2.07;;;0.80;;
20124;SDS011;10223;50.862;4.360;2023-08-06T04:09:18;1.90;;;0.73;;
20124;SDS011;10223;50.862;4.360;2023-08-06T04:11:46;4.13;;;1.33;;
20124;SDS011;10223;50.862;4.360;2023-08-06T04:14:13;1.53;;;0.60;;
20124;SDS011;10223;50.862;4.360;2023-08-06T04:16:40;1.17;;;0.80;;
20124;SDS011;10223;50.862;4.360;2023-08-06T04:19:07;3.33;;;0.90;;
20124;SDS011;10223;50.862;4.360;2023-08-06T04:21:33;2.97;;;1.67;;
20124;SDS011;10223;50.862;4.360;2023-08-06T04:24:00;1.50;;;0.97;;
20124;SDS011;10223;50.862;4.360;2023-08-06T04:26:27;1.67;;;1.20;;
20124;SDS011;10223;50.862;4.360;2023-08-06T04:28:55;2.30;;;1.30;;
20124;SDS011;10223;50.862;4.360;2023-08-06T04:31:22;2.23;;;1.43;;
20124;SDS011;10223;50.862;4.360;2023-08-06T04:33:49;2.83;;;1.70;;
20124;SDS011;10223;50.862;4.360;2023-08-06T04:36:16;1.67;;;1.17;;
20124;SDS011;10223;50.862;4.360;2023-08-06T04:38:42;3.80;;;1.87;;
20124;SDS011;10223;50.862;4.360;2023-08-06T04:41:12;5.13;;;2.00;;
20124;SDS011;10223;50.862;4.360;2023-08-06T04:43:39;4.10;;;2.30;;
20124;SDS011;10223;50.862;4.360;2023-08-06T04:46:07;5.13;;;2.23;;
20124;SDS011;10223;50.862;4.360;2023-08-06T04:48:34;6.90;;;3.03;;
20124;SDS011;10223;50.862;4.360;2023-08-06T04:51:01;5.77;;;2.70;;
20124;SDS011;10223;50.862;4.360;2023-08-06T04:53:27;5.20;;;2.37;;
20124;SDS011;10223;50.862;4.360;2023-08-06T04:55:54;4.10;;;2.43;;
20124;SDS011;10223;50.862;4.360;2023-08-06T04:58:21;6.07;;;2.53;;
20124;SDS011;10223;50.862;4.360;2023-08-06T05:00:48;5.60;;;2.93;;
20124;SDS011;10223;50.862;4.360;2023-08-06T05:03:16;7.20;;;2.87;;
20124;SDS011;10223;50.862;4.360;2023-08-06T05:05:42;6.07;;;2.77;;
20124;SDS011;10223;50.862;4.360;2023-08-06T05:08:13;3.90;;;2.50;;
20124;SDS011;10223;50.862;4.360;2023-08-06T05:10:42;6.47;;;2.90;;
20124;SDS011;10223;50.862;4.360;2023-08-06T05:13:09;6.17;;;2.93;;
20124;SDS011;10223;50.862;4.360;2023-08-06T05:15:36;8.50;;;3.00;;
20124;SDS011;10223;50.862;4.360;2023-08-06T05:18:02;7.83;;;3.13;;
20124;SDS011;10223;50.862;4.360;2023-08-06T05:20:30;6.60;;;3.10;;
20124;SDS011;10223;50.862;4.360;2023-08-06T05:23:01;7.47;;;3.10;;
20124;SDS011;10223;50.862;4.360;2023-08-06T05:25:28;7.10;;;2.80;;
20124;SDS011;10223;50.862;4.360;2023-08-06T05:27:56;6.53;;;3.03;;
20124;SDS011;10223;50.862;4.360;2023-08-06T05:30:22;9.10;;;3.20;;
20124;SDS011;10223;50.862;4.360;2023-08-06T05:32:49;8.03;;;3.47;;
20124;SDS011;10223;50.862;4.360;2023-08-06T05:35:16;7.70;;;3.03;;
20124;SDS011;10223;50.862;4.360;2023-08-06T05:37:44;8.23;;;3.43;;
20124;SDS011;10223;50.862;4.360;2023-08-06T05:40:11;10.73;;;3.60;;
20124;SDS011;10223;50.862;4.360;2023-08-06T05:42:38;9.17;;;2.80;;
20124;SDS011;10223;50.862;4.360;2023-08-06T05:45:06;9.97;;;2.90;;
20124;SDS011;10223;50.862;4.360;2023-08-06T05:47:33;7.00;;;2.30;;
20124;SDS011;10223;50.862;4.360;2023-08-06T05:50:00;10.80;;;2.80;;
20124;SDS011;10223;50.862;4.360;2023-08-06T05:52:27;7.77;;;2.60;;
20124;SDS011;10223;50.862;4.360;2023-08-06T05:54:55;9.00;;;2.60;;
20124;SDS011;10223;50.862;4.360;2023-08-06T05:57:22;11.70;;;3.27;;
20124;SDS011;10223;50.862;4.360;2023-08-06T05:59:48;11.90;;;3.37;;
20124;SDS011;10223;50.862;4.360;2023-08-06T06:02:15;11.73;;;2.70;;
20124;SDS011;10223;50.862;4.360;2023-08-06T06:04:44;10.60;;;3.70;;
20124;SDS011;10223;50.862;4.360;2023-08-06T06:07:11;11.20;;;2.73;;
20124;SDS011;10223;50.862;4.360;2023-08-06T06:09:39;8.60;;;3.27;;
20124;SDS011;10223;50.862;4.360;2023-08-06T06:12:07;13.53;;;3.63;;
20124;SDS011;10223;50.862;4.360;2023-08-06T06:14:34;8.30;;;3.17;;
20124;SDS011;10223;50.862;4.360;2023-08-06T06:17:01;10.97;;;3.73;;
20124;SDS011;10223;50.862;4.360;2023-08-06T06:19:27;15.77;;;4.43;;
20124;SDS011;10223;50.862;4.360;2023-08-06T06:21:54;12.77;;;4.47;;
20124;SDS011;10223;50.862;4.360;2023-08-06T06:24:22;8.67;;;3.27;;
20124;SDS011;10223;50.862;4.360;2023-08-06T06:26:49;10.77;;;3.30;;
20124;SDS011;10223;50.862;4.360;2023-08-06T06:29:17;11.60;;;5.60;;
20124;SDS011;10223;50.862;4.360;2023-08-06T06:31:44;10.33;;;2.97;;
20124;SDS011;10223;50.862;4.360;2023-08-06T06:34:11;10.80;;;3.17;;
20124;SDS011;10223;50.862;4.360;2023-08-06T06:36:38;11.23;;;3.27;;
20124;SDS011;10223;50.862;4.360;2023-08-06T06:39:05;15.10;;;3.93;;
20124;SDS011;10223;50.862;4.360;2023-08-06T06:41:33;8.03;;;3.40;;
20124;SDS011;10223;50.862;4.360;2023-08-06T06:44:00;10.90;;;2.90;;
20124;SDS011;10223;50.862;4.360;2023-08-06T06:46:28;8.17;;;3.10;;
20124;SDS011;10223;50.862;4.360;2023-08-06T06:48:55;8.50;;;3.20;;
20124;SDS011;10223;50.862;4.360;2023-08-06T06:51:21;9.70;;;3.17;;
20124;SDS011;10223;50.862;4.360;2023-08-06T06:53:48;11.40;;;3.10;;
20124;SDS011;10223;50.862;4.360;2023-08-06T06:56:15;7.30;;;2.80;;
20124;SDS011;10223;50.862;4.360;2023-08-06T06:58:42;7.00;;;3.10;;
20124;SDS011;10223;50.862;4.360;2023-08-06T07:01:09;12.40;;;3.13;;
20124;SDS011;10223;50.862;4.360;2023-08-06T07:03:38;10.40;;;2.90;;
20124;SDS011;10223;50.862;4.360;2023-08-06T07:06:04;8.37;;;2.50;;
20124;SDS011;10223;50.862;4.360;2023-08-06T07:08:31;6.23;;;2.43;;
20124;SDS011;10223;50.862;4.360;2023-08-06T07:11:01;11.10;;;3.90;;
20124;SDS011;10223;50.862;4.360;2023-08-06T07:13:29;9.03;;;3.17;;
20124;SDS011;10223;50.862;4.360;2023-08-06T07:15:56;9.93;;;1.93;;
20124;SDS011;10223;50.862;4.360;2023-08-06T07:18:23;10.93;;;2.50;;
20124;SDS011;10223;50.862;4.360;2023-08-06T07:20:51;6.97;;;1.87;;
20124;SDS011;10223;50.862;4.360;2023-08-06T07:23:19;8.77;;;1.90;;
20124;SDS011;10223;50.862;4.360;2023-08-06T07:25:47;8.77;;;1.53;;
20124;SDS011;10223;50.862;4.360;2023-08-06T07:28:14;8.70;;;1.00;;
20124;SDS011;10223;50.862;4.360;2023-08-06T07:30:41;10.20;;;1.57;;
20124;SDS011;10223;50.862;4.360;2023-08-06T07:33:08;9.47;;;1.40;;
20124;SDS011;10223;50.862;4.360;2023-08-06T07:35:35;7.33;;;1.40;;
20124;SDS011;10223;50.862;4.360;2023-08-06T07:38:04;8.67;;;1.30;;
20124;SDS011;10223;50.862;4.360;2023-08-06T07:40:31;4.83;;;1.03;;
20124;SDS011;10223;50.862;4.360;2023-08-06T07:42:57;10.70;;;1.33;;
20124;SDS011;10223;50.862;4.360;2023-08-06T07:45:24;9.60;;;1.70;;
20124;SDS011;10223;50.862;4.360;2023-08-06T07:47:51;11.87;;;1.47;;
20124;SDS011;10223;50.862;4.360;2023-08-06T07:50:18;8.87;;;1.40;;
20124;SDS011;10223;50.862;4.360;2023-08-06T07:52:45;6.83;;;1.33;;
20124;SDS011;10223;50.862;4.360;2023-08-06T07:55:14;12.73;;;1.63;;
20124;SDS011;10223;50.862;4.360;2023-08-06T07:57:40;11.13;;;1.67;;
20124;SDS011;10223;50.862;4.360;2023-08-06T08:00:08;6.17;;;1.30;;
20124;SDS011;10223;50.862;4.360;2023-08-06T08:02:35;14.13;;;1.80;;
20124;SDS011;10223;50.862;4.360;2023-08-06T08:05:02;13.23;;;1.90;;
20124;SDS011;10223;50.862;4.360;2023-08-06T08:07:30;10.30;;;1.90;;
20124;SDS011;10223;50.862;4.360;2023-08-06T08:09:57;13.67;;;1.83;;
20124;SDS011;10223;50.862;4.360;2023-08-06T08:12:25;9.93;;;1.53;;
20124;SDS011;10223;50.862;4.360;2023-08-06T08:14:52;8.20;;;1.30;;
20124;SDS011;10223;50.862;4.360;2023-08-06T08:17:19;13.77;;;1.30;;
20124;SDS011;10223;50.862;4.360;2023-08-06T08:19:46;4.83;;;1.20;;
20124;SDS011;10223;50.862;4.360;2023-08-06T08:22:12;9.73;;;1.53;;
20124;SDS011;10223;50.862;4.360;2023-08-06T08:24:39;5.83;;;1.30;;
20124;SDS011;10223;50.862;4.360;2023-08-06T08:27:06;12.90;;;1.90;;
20124;SDS011;10223;50.862;4.360;2023-08-06T08:29:34;8.70;;;1.83;;
20124;SDS011;10223;50.862;4.360;2023-08-06T08:32:01;9.43;;;1.63;;
20124;SDS011;10223;50.862;4.360;2023-08-06T08:34:28;7.67;;;1.67;;
20124;SDS011;10223;50.862;4.360;2023-08-06T08:36:54;6.83;;;1.40;;
20124;SDS011;10223;50.862;4.360;2023-08-06T08:39:22;9.60;;;2.10;;
20124;SDS011;10223;50.862;4.360;2023-08-06T08:41:49;5.80;;;1.30;;
20124;SDS011;10223;50.862;4.360;2023-08-06T08:44:15;7.23;;;1.63;;
20124;SDS011;10223;50.862;4.360;2023-08-06T08:46:45;7.43;;;1.63;;
20124;SDS011;10223;50.862;4.360;2023-08-06T08:49:14;8.10;;;1.47;;
20124;SDS011;10223;50.862;4.360;2023-08-06T08:51:41;7.13;;;1.40;;
20124;SDS011;10223;50.862;4.360;2023-08-06T08:54:09;8.63;;;1.73;;
20124;SDS011;10223;50.862;4.360;2023-08-06T08:56:39;6.60;;;1.80;;
20124;SDS011;10223;50.862;4.360;2023-08-06T08:59:06;9.13;;;1.83;;
20124;SDS011;10223;50.862;4.360;2023-08-06T09:01:33;8.60;;;2.27;;
20124;SDS011;10223;50.862;4.360;2023-08-06T09:04:04;3.40;;;1.60;;
20124;SDS011;10223;50.862;4.360;2023-08-06T09:06:31;12.43;;;2.07;;
20124;SDS011;10223;50.862;4.360;2023-08-06T09:09:05;8.80;;;2.10;;
20124;SDS011;10223;50.862;4.360;2023-08-06T09:11:35;8.53;;;1.33;;
20124;SDS011;10223;50.862;4.360;2023-08-06T09:14:07;10.20;;;1.73;;
20124;SDS011;10223;50.862;4.360;2023-08-06T09:16:34;8.30;;;1.57;;
20124;SDS011;10223;50.862;4.360;2023-08-06T09:19:07;8.50;;;1.63;;
20124;SDS011;10223;50.862;4.360;2023-08-06T09:21:36;13.60;;;1.77;;
20124;SDS011;10223;50.862;4.360;2023-08-06T09:24:06;8.60;;;1.70;;
20124;SDS011;10223;50.862;4.360;2023-08-06T09:26:49;5.27;;;1.23;;
20124;SDS011;10223;50.862;4.360;2023-08-06T09:29:15;10.97;;;1.70;;
20124;SDS011;10223;50.862;4.360;2023-08-06T09:31:43;5.13;;;1.43;;
20124;SDS011;10223;50.862;4.360;2023-08-06T09:34:11;9.37;;;2.03;;
20124;SDS011;10223;50.862;4.360;2023-08-06T09:36:39;8.13;;;2.00;;
20124;SDS011;10223;50.862;4.360;2023-08-06T09:39:12;3.67;;;1.23;;
20124;SDS011;10223;50.862;4.360;2023-08-06T09:41:39;9.87;;;2.03;;
20124;SDS011;10223;50.862;4.360;2023-08-06T09:44:10;8.63;;;1.77;;
20124;SDS011;10223;50.862;4.360;2023-08-06T09:46:46;7.83;;;1.90;;
20124;SDS011;10223;50.862;4.360;2023-08-06T09:49:13;11.00;;;1.70;;
20124;SDS011;10223;50.862;4.360;2023-08-06T09:51:40;7.53;;;2.03;;
20124;SDS011;10223;50.862;4.360;2023-08-06T09:54:09;14.70;;;2.63;;
20124;SDS011;10223;50.862;4.360;2023-08-06T09:56:38;10.03;;;2.10;;
20124;SDS011;10223;50.862;4.360;2023-08-06T09:59:05;8.03;;;1.83;;
20124;SDS011;10223;50.862;4.360;2023-08-06T10:01:33;10.07;;;2.37;;
20124;SDS011;10223;50.862;4.360;2023-08-06T10:04:00;8.33;;;2.20;;
20124;SDS011;10223;50.862;4.360;2023-08-06T10:06:29;10.23;;;1.40;;
20124;SDS011;10223;50.862;4.360;2023-08-06T10:08:58;7.87;;;1.50;;
20124;SDS011;10223;50.862;4.360;2023-08-06T10:11:25;8.50;;;2.40;;
20124;SDS011;10223;50.862;4.360;2023-08-06T10:13:53;10.50;;;2.30;;
20124;SDS011;10223;50.862;4.360;2023-08-06T10:16:24;9.87;;;1.90;;
20124;SDS011;10223;50.862;4.360;2023-08-06T10:18:52;9.93;;;1.70;;
20124;SDS011;10223;50.862;4.360;2023-08-06T10:21:22;3.77;;;1.30;;
20124;SDS011;10223;50.862;4.360;2023-08-06T10:23:53;11.53;;;2.60;;
20124;SDS011;10223;50.862;4.360;2023-08-06T10:26:20;6.80;;;1.50;;
20124;SDS011;10223;50.862;4.360;2023-08-06T10:28:51;7.83;;;1.80;;
20124;SDS011;10223;50.862;4.360;2023-08-06T10:31:18;10.93;;;2.07;;
20124;SDS011;10223;50.862;4.360;2023-08-06T10:33:46;9.67;;;1.57;;
20124;SDS011;10223;50.862;4.360;2023-08-06T10:36:15;7.20;;;1.50;;
20124;SDS011;10223;50.862;4.360;2023-08-06T10:38:45;5.90;;;1.20;;
20124;SDS011;10223;50.862;4.360;2023-08-06T10:41:17;6.63;;;1.80;;
20124;SDS011;10223;50.862;4.360;2023-08-06T10:43:49;6.60;;;1.37;;
20124;SDS011;10223;50.862;4.360;2023-08-06T10:46:23;7.83;;;1.40;;
20124;SDS011;10223;50.862;4.360;2023-08-06T10:48:52;9.80;;;1.47;;
20124;SDS011;10223;50.862;4.360;2023-08-06T10:51:21;10.50;;;2.13;;
20124;SDS011;10223;50.862;4.360;2023-08-06T10:53:49;10.50;;;2.00;;
20124;SDS011;10223;50.862;4.360;2023-08-06T10:56:16;8.40;;;1.87;;
20124;SDS011;10223;50.862;4.360;2023-08-06T10:58:45;10.77;;;2.57;;
20124;SDS011;10223;50.862;4.360;2023-08-06T11:01:13;8.30;;;2.27;;
20124;SDS011;10223;50.862;4.360;2023-08-06T11:03:41;8.33;;;2.40;;
20124;SDS011;10223;50.862;4.360;2023-08-06T11:06:08;8.23;;;2.43;;
20124;SDS011;10223;50.862;4.360;2023-08-06T11:08:37;10.57;;;2.73;;
20124;SDS011;10223;50.862;4.360;2023-08-06T11:11:07;7.90;;;1.70;;
20124;SDS011;10223;50.862;4.360;2023-08-06T11:13:36;10.63;;;1.90;;
20124;SDS011;10223;50.862;4.360;2023-08-06T11:16:03;8.77;;;1.83;;
20124;SDS011;10223;50.862;4.360;2023-08-06T11:18:31;13.87;;;2.07;;
20124;SDS011;10223;50.862;4.360;2023-08-06T11:20:58;11.17;;;2.00;;
20124;SDS011;10223;50.862;4.360;2023-08-06T11:23:26;4.60;;;1.47;;
20124;SDS011;10223;50.862;4.360;2023-08-06T11:25:55;7.83;;;1.73;;
20124;SDS011;10223;50.862;4.360;2023-08-06T11:28:22;13.73;;;1.33;;
20124;SDS011;10223;50.862;4.360;2023-08-06T11:30:49;5.47;;;1.50;;
20124;SDS011;10223;50.862;4.360;2023-08-06T11:33:19;4.03;;;1.50;;
20124;SDS011;10223;50.862;4.360;2023-08-06T11:35:47;7.20;;;1.83;;
20124;SDS011;10223;50.862;4.360;2023-08-06T11:38:15;6.63;;;1.30;;
20124;SDS011;10223;50.862;4.360;2023-08-06T11:40:43;7.67;;;1.73;;
20124;SDS011;10223;50.862;4.360;2023-08-06T11:43:11;5.43;;;1.70;;
20124;SDS011;10223;50.862;4.360;2023-08-06T11:45:38;10.33;;;2.13;;
20124;SDS011;10223;50.862;4.360;2023-08-06T11:48:05;5.90;;;1.37;;
20124;SDS011;10223;50.862;4.360;2023-08-06T11:50:35;6.67;;;1.50;;
20124;SDS011;10223;50.862;4.360;2023-08-06T11:53:03;5.60;;;1.13;;
20124;SDS011;10223;50.862;4.360;2023-08-06T11:55:30;5.43;;;1.23;;
20124;SDS011;10223;50.862;4.360;2023-08-06T11:57:57;6.93;;;2.20;;
20124;SDS011;10223;50.862;4.360;2023-08-06T12:00:26;4.30;;;1.00;;
20124;SDS011;10223;50.862;4.360;2023-08-06T12:02:53;9.53;;;1.80;;
20124;SDS011;10223;50.862;4.360;2023-08-06T12:05:20;5.87;;;1.43;;
20124;SDS011;10223;50.862;4.360;2023-08-06T12:07:49;7.23;;;1.13;;
20124;SDS011;10223;50.862;4.360;2023-08-06T12:10:16;5.90;;;1.00;;
20124;SDS011;10223;50.862;4.360;2023-08-06T12:12:44;8.27;;;1.73;;
20124;SDS011;10223;50.862;4.360;2023-08-06T12:15:11;9.47;;;1.40;;
20124;SDS011;10223;50.862;4.360;2023-08-06T12:17:40;10.20;;;2.00;;
20124;SDS011;10223;50.862;4.360;2023-08-06T12:20:08;7.73;;;1.47;;
20124;SDS011;10223;50.862;4.360;2023-08-06T12:22:35;16.13;;;2.70;;
20124;SDS011;10223;50.862;4.360;2023-08-06T12:25:05;16.53;;;2.50;;
20124;SDS011;10223;50.862;4.360;2023-08-06T12:27:33;8.90;;;1.40;;
20124;SDS011;10223;50.862;4.360;2023-08-06T12:30:00;5.20;;;1.23;;
20124;SDS011;10223;50.862;4.360;2023-08-06T12:32:28;4.60;;;1.60;;
20124;SDS011;10223;50.862;4.360;2023-08-06T12:34:57;6.47;;;2.07;;
20124;SDS011;10223;50.862;4.360;2023-08-06T12:37:24;8.00;;;1.57;;
20124;SDS011;10223;50.862;4.360;2023-08-06T12:39:51;11.23;;;1.90;;
20124;SDS011;10223;50.862;4.360;2023-08-06T12:42:18;14.53;;;3.07;;
20124;SDS011;10223;50.862;4.360;2023-08-06T12:44:45;10.00;;;3.30;;
20124;SDS011;10223;50.862;4.360;2023-08-06T12:47:15;6.20;;;1.77;;
20124;SDS011;10223;50.862;4.360;2023-08-06T12:49:42;8.87;;;1.80;;
20124;SDS011;10223;50.862;4.360;2023-08-06T12:52:11;8.10;;;1.53;;
20124;SDS011;10223;50.862;4.360;2023-08-06T12:54:40;5.17;;;1.53;;
20124;SDS011;10223;50.862;4.360;2023-08-06T12:57:07;7.47;;;1.53;;
20124;SDS011;10223;50.862;4.360;2023-08-06T12:59:34;6.37;;;1.50;;
20124;SDS011;10223;50.862;4.360;2023-08-06T13:02:01;6.97;;;1.67;;
20124;SDS011;10223;50.862;4.360;2023-08-06T13:04:29;8.17;;;1.57;;
20124;SDS011;10223;50.862;4.360;2023-08-06T13:06:56;8.13;;;1.77;;
20124;SDS011;10223;50.862;4.360;2023-08-06T13:09:24;8.60;;;1.30;;
20124;SDS011;10223;50.862;4.360;2023-08-06T13:11:52;8.23;;;1.60;;
20124;SDS011;10223;50.862;4.360;2023-08-06T13:14:19;7.57;;;1.50;;
20124;SDS011;10223;50.862;4.360;2023-08-06T13:16:46;5.87;;;1.93;;
20124;SDS011;10223;50.862;4.360;2023-08-06T13:19:13;13.23;;;2.20;;
20124;SDS011;10223;50.862;4.360;2023-08-06T13:24:42;14.10;;;1.50;;
20124;SDS011;10223;50.862;4.360;2023-08-06T13:27:09;6.43;;;1.53;;
20124;SDS011;10223;50.862;4.360;2023-08-06T13:29:36;4.37;;;1.80;;
20124;SDS011;10223;50.862;4.360;2023-08-06T13:32:03;8.43;;;1.80;;
20124;SDS011;10223;50.862;4.360;2023-08-06T13:34:31;7.40;;;2.03;;
20124;SDS011;10223;50.862;4.360;2023-08-06T13:36:57;10.00;;;1.33;;
20124;SDS011;10223;50.862;4.360;2023-08-06T13:39:24;11.67;;;1.80;;
20124;SDS011;10223;50.862;4.360;2023-08-06T13:41:53;9.67;;;1.97;;
20124;SDS011;10223;50.862;4.360;2023-08-06T13:44:20;9.50;;;2.03;;
20124;SDS011;10223;50.862;4.360;2023-08-06T13:46:47;6.13;;;1.67;;
20124;SDS011;10223;50.862;4.360;2023-08-06T13:49:14;8.93;;;2.27;;
20124;SDS011;10223;50.862;4.360;2023-08-06T13:51:40;9.13;;;1.70;;
20124;SDS011;10223;50.862;4.360;2023-08-06T13:54:07;7.77;;;2.23;;
20124;SDS011;10223;50.862;4.360;2023-08-06T13:56:34;8.47;;;1.40;;
20124;SDS011;10223;50.862;4.360;2023-08-06T13:59:04;7.70;;;1.47;;
20124;SDS011;10223;50.862;4.360;2023-08-06T14:01:31;9.40;;;1.30;;
20124;SDS011;10223;50.862;4.360;2023-08-06T14:03:58;6.33;;;1.30;;
20124;SDS011;10223;50.862;4.360;2023-08-06T14:06:28;4.20;;;1.20;;
20124;SDS011;10223;50.862;4.360;2023-08-06T14:08:55;10.37;;;1.83;;
20124;SDS011;10223;50.862;4.360;2023-08-06T14:11:22;8.37;;;1.10;;
20124;SDS011;10223;50.862;4.360;2023-08-06T14:13:49;5.17;;;1.33;;
20124;SDS011;10223;50.862;4.360;2023-08-06T14:16:17;6.67;;;1.13;;
20124;SDS011;10223;50.862;4.360;2023-08-06T14:18:44;4.97;;;1.23;;
20124;SDS011;10223;50.862;4.360;2023-08-06T14:21:11;7.07;;;1.57;;
20124;SDS011;10223;50.862;4.360;2023-08-06T14:23:39;8.40;;;1.40;;
20124;SDS011;10223;50.862;4.360;2023-08-06T14:26:06;6.77;;;1.57;;
20124;SDS011;10223;50.862;4.360;2023-08-06T14:28:32;6.60;;;1.90;;
20124;SDS011;10223;50.862;4.360;2023-08-06T14:30:59;6.87;;;1.40;;
20124;SDS011;10223;50.862;4.360;2023-08-06T14:33:28;6.63;;;1.77;;
20124;SDS011;10223;50.862;4.360;2023-08-06T14:35:54;6.00;;;1.37;;
20124;SDS011;10223;50.862;4.360;2023-08-06T14:38:21;6.90;;;1.40;;
20124;SDS011;10223;50.862;4.360;2023-08-06T14:40:48;7.67;;;1.60;;
20124;SDS011;10223;50.862;4.360;2023-08-06T14:43:15;8.80;;;1.90;;
20124;SDS011;10223;50.862;4.360;2023-08-06T14:45:42;5.60;;;1.33;;
20124;SDS011;10223;50.862;4.360;2023-08-06T14:48:11;14.13;;;1.73;;